createdAt,value
2022-10-02T00:00:23.947Z,99.99
2022-10-02T00:01:24.255Z,99.99
2022-10-02T00:02:24.499Z,99.99
2022-10-02T00:03:24.809Z,99.99
2022-10-02T00:04:25.065Z,99.99
2022-10-02T00:05:25.324Z,99.99
2022-10-02T00:06:25.547Z,99.99
2022-10-02T00:07:25.891Z,99.99
2022-10-02T00:08:29.986Z,99.99
2022-10-02T00:09:26.377Z,99.99
2022-10-02T00:10:26.606Z,99.99
2022-10-02T00:11:26.939Z,99.99
2022-10-02T00:12:27.303Z,99.99
2022-10-02T00:13:27.520Z,99.99
2022-10-02T00:14:27.844Z,99.99
2022-10-02T00:15:28.188Z,99.99
2022-10-02T00:16:28.532Z,99.99
2022-10-02T00:17:28.816Z,99.99
2022-10-02T00:18:29.064Z,99.99
2022-10-02T00:19:29.322Z,99.99
2022-10-02T00:20:29.541Z,99.99
2022-10-02T00:21:29.875Z,99.99
2022-10-02T00:22:30.187Z,99.99
2022-10-02T00:23:30.578Z,99.99
2022-10-02T00:24:30.785Z,99.99
2022-10-02T00:25:31.124Z,99.99
2022-10-02T00:26:31.330Z,99.99
2022-10-02T00:27:31.679Z,99.99
2022-10-02T00:28:32.126Z,99.99
2022-10-02T00:29:32.258Z,99.99
2022-10-02T00:30:32.613Z,99.99
2022-10-02T00:31:32.898Z,99.99
2022-10-02T00:32:33.138Z,99.99
2022-10-02T00:33:33.478Z,99.99
2022-10-02T00:34:33.693Z,99.99
2022-10-02T00:35:34.068Z,99.99
2022-10-02T00:36:34.614Z,99.99
2022-10-02T00:37:34.535Z,99.99
2022-10-02T00:38:34.909Z,99.99
2022-10-02T00:39:35.123Z,99.99
2022-10-02T00:40:35.457Z,99.99
2022-10-02T00:41:35.806Z,99.99
2022-10-02T00:42:39.901Z,99.99
2022-10-02T00:43:36.436Z,99.99
2022-10-02T00:44:36.652Z,99.99
2022-10-02T00:45:37.120Z,99.99
2022-10-02T00:46:37.692Z,99.99
2022-10-02T00:47:37.581Z,99.99
2022-10-02T00:48:37.794Z,99.99
2022-10-02T00:49:38.133Z,99.99
2022-10-02T00:50:38.457Z,99.99
2022-10-02T00:51:38.797Z,99.99
2022-10-02T02:55:44.896Z,99.99
2022-10-02T02:56:41.400Z,99.99
2022-10-02T02:57:41.688Z,99.99
2022-10-02T02:58:41.949Z,99.99
2022-10-02T02:59:42.199Z,99.99
2022-10-02T03:00:42.494Z,99.88
2022-10-02T03:01:42.849Z,99.88
2022-10-02T03:02:42.994Z,99.99
2022-10-02T03:03:43.229Z,99.99
2022-10-02T03:04:43.491Z,99.99
2022-10-02T03:05:43.704Z,99.99
2022-10-02T03:06:44.027Z,99.99
2022-10-02T03:07:44.381Z,99.99
2022-10-02T03:08:44.594Z,99.99
2022-10-02T03:09:44.953Z,99.99
2022-10-02T03:10:45.171Z,99.99
2022-10-02T03:11:45.425Z,99.99
2022-10-02T03:12:45.653Z,99.99
2022-10-02T03:13:45.870Z,99.99
2022-10-02T03:14:46.173Z,99.99
2022-10-02T03:15:46.567Z,99.99
2022-10-02T03:16:46.816Z,99.99
2022-10-02T03:17:47.066Z,99.99
2022-10-02T03:18:47.274Z,99.99
2022-10-02T03:19:47.575Z,99.99
2022-10-02T03:20:47.896Z,99.99
2022-10-02T03:21:48.211Z,99.99
2022-10-02T03:22:48.573Z,99.99
2022-10-02T03:23:48.786Z,99.99
2022-10-02T03:24:49.144Z,99.99
2022-10-02T03:25:49.353Z,99.99
2022-10-02T03:26:49.666Z,99.99
2022-10-02T03:27:50.049Z,99.99
2022-10-02T03:28:56.113Z,99.99
2022-10-02T03:29:51.633Z,99.99
2022-10-02T03:30:50.885Z,99.99
2022-10-02T03:31:51.288Z,99.99
2022-10-02T03:32:51.523Z,99.99
2022-10-02T03:33:51.856Z,99.99
2022-10-02T03:34:52.241Z,99.99
2022-10-02T03:35:52.448Z,99.99
2022-10-02T03:36:52.798Z,99.99
2022-10-02T03:37:53.002Z,99.99
2022-10-02T03:39:12.665Z,99.99
2022-10-02T03:39:54.651Z,99.99
2022-10-02T03:40:53.922Z,99.99
2022-10-02T03:41:54.260Z,99.99
2022-10-02T03:42:54.478Z,99.99
2022-10-02T03:43:54.823Z,99.99
2022-10-02T03:44:55.196Z,99.99
2022-10-02T03:45:55.404Z,99.99
2022-10-02T03:46:55.777Z,99.99
2022-10-02T03:47:56.066Z,99.99
2022-10-02T03:48:56.473Z,99.99
2022-10-02T03:49:56.649Z,99.99
2022-10-02T03:50:56.982Z,99.99
2022-10-02T03:51:57.300Z,99.99
2022-10-02T03:52:57.636Z,99.99
2022-10-02T03:53:57.965Z,99.99
2022-10-02T03:54:58.191Z,99.99
2022-10-02T03:55:58.404Z,99.99
2022-10-02T03:56:58.724Z,99.99
2022-10-02T03:57:59.057Z,99.99
2022-10-02T03:58:59.436Z,99.99
2022-10-02T03:59:59.651Z,99.99
2022-10-02T04:00:59.982Z,99.99
2022-10-02T04:02:00.390Z,99.99
2022-10-02T04:03:00.529Z,99.99
2022-10-02T04:04:00.971Z,99.99
2022-10-02T04:05:01.111Z,99.99
2022-10-02T04:06:01.441Z,99.99
2022-10-02T04:07:01.804Z,99.99
2022-10-02T04:08:02.012Z,99.99
2022-10-02T04:09:02.336Z,99.99
2022-10-02T04:10:02.545Z,99.99
2022-10-02T04:11:02.898Z,99.99
2022-10-02T04:12:03.123Z,99.99
2022-10-02T04:13:03.455Z,99.99
2022-10-02T04:14:03.774Z,99.99
2022-10-02T04:15:07.978Z,99.99
2022-10-02T04:16:04.412Z,99.99
2022-10-02T04:17:04.665Z,99.99
2022-10-02T04:18:04.878Z,99.99
2022-10-02T04:19:07.127Z,99.99
2022-10-02T04:20:05.448Z,99.99
2022-10-02T04:21:05.767Z,99.99
2022-10-02T04:22:06.107Z,99.99
2022-10-02T04:23:06.465Z,99.99
2022-10-02T04:24:06.679Z,99.99
2022-10-02T04:25:07.009Z,99.99
2022-10-02T04:26:07.353Z,99.99
2022-10-02T04:27:07.698Z,99.99
2022-10-02T04:28:08.144Z,99.99
2022-10-02T04:29:12.022Z,99.99
2022-10-02T04:30:08.536Z,99.99
2022-10-02T04:31:08.822Z,99.99
2022-10-02T04:32:08.981Z,99.99
2022-10-02T04:33:09.343Z,99.99
2022-10-02T04:34:09.563Z,99.99
2022-10-02T04:35:09.919Z,99.99
2022-10-02T04:36:10.150Z,99.99
2022-10-02T04:37:10.352Z,99.99
2022-10-02T04:38:10.687Z,99.99
2022-10-02T04:39:11.011Z,99.99
2022-10-02T04:40:11.385Z,99.99
2022-10-02T04:41:11.614Z,99.99
2022-10-02T04:42:11.821Z,99.99
2022-10-02T04:43:12.170Z,99.99
2022-10-02T04:44:12.387Z,99.99
2022-10-02T04:45:12.733Z,99.99
2022-10-02T04:46:13.167Z,99.99
2022-10-02T04:47:13.318Z,99.99
2022-10-02T04:48:13.644Z,99.99
2022-10-02T04:49:13.956Z,99.99
2022-10-02T04:50:14.174Z,99.99
2022-10-02T04:51:14.569Z,99.99
2022-10-02T04:52:14.791Z,99.99
2022-10-02T04:53:15.130Z,99.99
2022-10-02T04:54:15.360Z,99.99
2022-10-02T04:55:15.682Z,99.99
2022-10-02T04:56:16.046Z,99.99
2022-10-02T04:57:16.270Z,99.99
2022-10-02T04:58:16.607Z,99.99
2022-10-02T04:59:16.941Z,99.99
2022-10-02T05:00:17.282Z,99.99
2022-10-02T05:01:17.694Z,99.99
2022-10-02T05:02:18.086Z,99.99
2022-10-02T05:03:19.638Z,99.99
2022-10-02T05:04:18.425Z,99.99
2022-10-02T05:05:18.737Z,99.99
2022-10-02T05:06:19.067Z,99.99
2022-10-02T05:07:19.439Z,99.99
2022-10-02T05:08:19.654Z,99.99
2022-10-02T05:09:19.997Z,99.99
2022-10-02T05:10:20.205Z,99.99
2022-10-02T05:11:20.514Z,99.99
2022-10-02T05:12:20.868Z,99.99
2022-10-02T05:13:21.086Z,99.99
2022-10-02T05:14:21.409Z,99.99
2022-10-02T05:15:21.748Z,99.99
2022-10-02T05:16:22.107Z,99.99
2022-10-02T05:17:22.422Z,99.99
2022-10-02T05:18:22.643Z,99.99
2022-10-02T05:19:22.968Z,99.99
2022-10-02T05:20:23.335Z,99.99
2022-10-02T05:21:23.548Z,99.99
2022-10-02T05:22:23.866Z,99.99
2022-10-02T05:23:24.208Z,99.99
2022-10-02T05:24:24.531Z,99.99
2022-10-02T05:25:24.895Z,99.99
2022-10-02T05:26:25.103Z,99.99
2022-10-02T05:27:25.442Z,99.99
2022-10-02T05:28:25.713Z,99.99
2022-10-02T05:29:25.939Z,99.99
2022-10-02T05:30:26.303Z,99.99
2022-10-02T05:31:26.591Z,99.99
2022-10-02T05:32:26.853Z,99.99
2022-10-02T05:33:27.067Z,99.99
2022-10-02T05:34:27.395Z,99.99
2022-10-02T05:35:27.734Z,99.99
2022-10-02T05:36:27.947Z,99.99
2022-10-02T05:37:28.277Z,99.99
2022-10-02T05:38:28.607Z,99.99
2022-10-02T05:39:28.939Z,99.99
2022-10-02T05:40:29.273Z,99.99
2022-10-02T05:41:29.467Z,99.99
2022-10-02T05:42:29.789Z,99.99
2022-10-02T05:43:30.124Z,99.99
2022-10-02T05:44:30.458Z,99.99
2022-10-02T05:45:30.831Z,99.99
2022-10-02T05:46:31.072Z,99.99
2022-10-02T05:47:31.292Z,99.99
2022-10-02T05:48:31.631Z,99.99
2022-10-02T05:49:31.844Z,99.99
2022-10-02T05:50:32.202Z,99.99
2022-10-02T05:51:32.456Z,99.99
2022-10-02T05:52:32.670Z,99.99
2022-10-02T05:53:32.887Z,99.99
2022-10-02T05:54:33.116Z,99.99
2022-10-02T05:55:33.338Z,99.99
2022-10-02T05:56:33.966Z,99.99
2022-10-02T05:57:33.923Z,99.99
2022-10-02T05:58:34.148Z,99.99
2022-10-02T05:59:34.487Z,99.99
2022-10-02T06:00:34.818Z,99.99
2022-10-02T06:01:35.175Z,99.99
2022-10-02T06:02:38.991Z,99.99
2022-10-02T06:03:35.640Z,99.99
2022-10-02T06:04:36.760Z,99.99
2022-10-02T06:05:36.278Z,99.99
2022-10-02T06:06:36.810Z,99.99
2022-10-02T06:07:36.806Z,99.99
2022-10-02T06:08:41.048Z,99.99
2022-10-02T06:09:37.467Z,99.99
2022-10-02T06:10:37.700Z,99.99
2022-10-02T06:11:37.919Z,99.99
2022-10-02T06:12:38.182Z,99.99
2022-10-02T06:13:38.390Z,99.99
2022-10-02T06:14:38.688Z,99.99
2022-10-02T06:15:38.998Z,99.99
2022-10-02T06:16:39.984Z,99.99
2022-10-02T06:17:43.509Z,99.99
2022-10-02T06:18:39.892Z,99.99
2022-10-02T06:19:40.231Z,99.99
2022-10-02T06:20:40.575Z,99.99
2022-10-02T06:21:40.935Z,99.99
2022-10-02T06:22:41.207Z,99.99
2022-10-02T06:23:41.582Z,99.99
2022-10-02T06:24:41.785Z,99.99
2022-10-02T06:25:42.098Z,99.99
2022-10-02T06:26:42.432Z,99.99
2022-10-02T06:27:42.759Z,99.99
2022-10-02T06:28:43.126Z,99.99
2022-10-02T06:29:43.343Z,99.99
2022-10-02T06:30:43.666Z,99.99
2022-10-02T06:31:44.041Z,99.99
2022-10-02T06:32:44.285Z,99.99
2022-10-02T06:33:44.643Z,99.99
2022-10-02T06:34:48.004Z,99.99
2022-10-02T06:35:45.230Z,99.99
2022-10-02T06:36:45.443Z,99.99
2022-10-02T06:37:45.817Z,99.99
2022-10-02T06:38:46.039Z,99.99
2022-10-02T06:39:46.409Z,99.99
2022-10-02T06:40:46.632Z,99.99
2022-10-02T06:41:46.945Z,99.99
2022-10-02T06:42:47.239Z,99.99
2022-10-02T06:43:47.553Z,99.99
2022-10-02T06:44:47.806Z,99.99
2022-10-02T06:45:48.077Z,99.99
2022-10-02T06:46:51.290Z,99.99
2022-10-02T06:47:48.651Z,99.99
2022-10-02T06:48:48.893Z,99.99
2022-10-02T06:49:49.113Z,99.99
2022-10-02T06:50:49.435Z,99.99
2022-10-02T06:51:49.755Z,99.99
2022-10-02T06:52:50.096Z,99.99
2022-10-02T06:53:50.458Z,99.99
2022-10-02T06:54:50.675Z,99.99
2022-10-02T06:55:51.039Z,99.99
2022-10-02T06:56:51.288Z,99.99
2022-10-02T06:57:51.510Z,99.99
2022-10-02T06:58:51.718Z,99.99
2022-10-02T06:59:52.036Z,99.99
2022-10-02T07:00:52.394Z,99.99
2022-10-02T07:01:57.054Z,99.99
2022-10-02T07:02:52.913Z,99.99
2022-10-02T07:03:53.231Z,99.99
2022-10-02T07:04:53.550Z,99.99
2022-10-02T07:05:53.878Z,99.99
2022-10-02T07:06:54.227Z,99.99
2022-10-02T07:07:54.443Z,99.99
2022-10-02T07:08:54.775Z,99.99
2022-10-02T07:09:55.859Z,99.99
2022-10-02T07:10:55.381Z,99.99
2022-10-02T07:11:59.440Z,99.99
2022-10-02T07:12:55.948Z,99.99
2022-10-02T07:13:56.278Z,99.99
2022-10-02T07:14:56.606Z,99.99
2022-10-02T07:15:56.999Z,99.80
2022-10-02T07:16:57.285Z,99.46
2022-10-02T07:17:57.501Z,99.15
2022-10-02T07:18:57.835Z,99.25
2022-10-02T07:19:58.195Z,98.65
2022-10-02T07:20:58.407Z,98.74
2022-10-02T07:21:58.776Z,98.65
2022-10-02T07:22:58.989Z,98.34
2022-10-02T07:24:02.398Z,98.34
2022-10-02T07:25:01.426Z,98.95
2022-10-02T07:25:59.971Z,98.60
2022-10-02T07:27:00.334Z,98.50
2022-10-02T07:28:00.619Z,97.19
2022-10-02T07:29:01.617Z,95.68
2022-10-02T07:30:01.130Z,94.57
2022-10-02T07:31:01.464Z,94.27
2022-10-02T07:32:01.897Z,93.72
2022-10-02T07:33:02.028Z,94.63
2022-10-02T07:34:02.359Z,94.48
2022-10-02T07:35:02.657Z,93.57
2022-10-02T07:36:03.027Z,92.41
2022-10-02T07:37:03.255Z,92.30
2022-10-02T07:38:03.473Z,92.16
2022-10-02T07:39:03.687Z,92.71
2022-10-02T07:40:04.015Z,93.82
2022-10-02T07:41:04.389Z,94.07
2022-10-02T07:42:04.576Z,93.96
2022-10-02T07:43:04.910Z,94.92
2022-10-02T07:44:05.239Z,95.93
2022-10-02T07:45:05.558Z,95.43
2022-10-02T07:46:09.173Z,95.22
2022-10-02T07:47:06.115Z,95.63
2022-10-02T07:48:06.342Z,95.93
2022-10-02T07:49:06.545Z,96.09
2022-10-02T07:50:07.142Z,95.07
2022-10-02T07:51:07.108Z,94.98
2022-10-02T07:52:11.160Z,94.17
2022-10-02T07:53:07.780Z,94.78
2022-10-02T07:54:09.939Z,94.67
2022-10-02T07:55:08.418Z,94.62
2022-10-02T07:56:08.625Z,94.82
2022-10-02T07:57:10.025Z,95.57
2022-10-02T07:58:09.258Z,96.48
2022-10-02T07:59:09.568Z,95.78
2022-10-02T08:00:09.809Z,95.82
2022-10-02T08:01:10.017Z,95.72
2022-10-02T08:02:10.403Z,96.42
2022-10-02T08:03:10.759Z,96.42
2022-10-02T08:04:11.025Z,96.78
2022-10-02T08:05:11.216Z,97.14
2022-10-02T08:06:11.541Z,96.83
2022-10-02T08:07:11.860Z,96.53
2022-10-02T08:08:12.163Z,96.63
2022-10-02T08:09:12.523Z,96.33
2022-10-02T08:10:12.734Z,95.87
2022-10-02T08:11:13.049Z,95.67
2022-10-02T08:12:13.367Z,95.07
2022-10-02T08:13:13.752Z,95.07
2022-10-02T08:14:13.990Z,95.27
2022-10-02T08:15:14.206Z,95.07
2022-10-02T08:16:14.476Z,95.27
2022-10-02T08:17:14.700Z,95.72
2022-10-02T08:18:33.590Z,96.12
2022-10-02T08:19:16.349Z,96.02
2022-10-02T08:20:15.619Z,96.02
2022-10-02T08:21:15.929Z,96.48
2022-10-02T08:22:16.236Z,96.89
2022-10-02T08:23:16.550Z,96.48
2022-10-02T08:24:17.907Z,96.23
2022-10-02T08:25:17.168Z,95.78
2022-10-02T08:26:17.492Z,94.27
2022-10-02T08:27:17.806Z,93.66
2022-10-02T08:28:18.236Z,93.92
2022-10-02T08:29:18.484Z,93.32
2022-10-02T08:30:18.772Z,93.72
2022-10-02T08:31:19.007Z,94.12
2022-10-02T08:32:19.272Z,95.23
2022-10-02T08:33:19.622Z,94.73
2022-10-02T08:34:19.830Z,95.03
2022-10-02T08:35:20.164Z,94.02
2022-10-02T08:36:20.497Z,94.02
2022-10-02T08:37:20.839Z,94.28
2022-10-02T08:38:21.192Z,94.18
2022-10-02T08:39:23.220Z,93.68
2022-10-02T08:40:21.632Z,93.17
2022-10-02T08:41:21.940Z,92.86
2022-10-02T08:42:22.259Z,93.88
2022-10-02T08:43:22.572Z,92.57
2022-10-02T08:44:22.927Z,93.88
2022-10-02T08:45:23.145Z,94.28
2022-10-02T08:46:23.508Z,94.18
2022-10-02T08:47:23.731Z,94.18
2022-10-02T08:48:24.153Z,94.32
2022-10-02T08:49:24.380Z,94.53
2022-10-02T08:50:24.591Z,94.02
2022-10-02T08:51:24.925Z,94.43
2022-10-02T08:52:25.234Z,94.78
2022-10-02T08:53:25.592Z,94.17
2022-10-02T08:54:25.780Z,94.98
2022-10-02T08:55:26.100Z,95.07
2022-10-02T08:56:26.433Z,95.07
2022-10-02T08:57:26.763Z,95.32
2022-10-02T08:58:27.117Z,95.78
2022-10-02T08:59:27.426Z,95.18
2022-10-02T09:00:27.746Z,95.68
2022-10-02T09:01:28.092Z,95.98
2022-10-02T09:02:28.335Z,96.03
2022-10-02T09:03:28.660Z,96.03
2022-10-02T09:04:28.897Z,96.13
2022-10-02T09:05:29.141Z,96.54
2022-10-02T09:06:29.338Z,96.80
2022-10-02T09:07:29.662Z,96.09
2022-10-02T09:08:29.977Z,96.19
2022-10-02T09:09:34.038Z,95.94
2022-10-02T09:10:30.562Z,96.39
2022-10-02T09:11:32.539Z,96.25
2022-10-02T09:12:31.075Z,96.65
2022-10-02T09:13:31.404Z,95.29
2022-10-02T09:14:31.711Z,95.39
2022-10-02T09:15:32.075Z,94.55
2022-10-02T09:16:32.335Z,85.96
2022-10-02T09:17:32.557Z,77.14
2022-10-02T09:18:32.787Z,77.43
2022-10-02T09:19:33.160Z,81.45
2022-10-02T09:20:34.106Z,82.67
2022-10-02T09:21:33.621Z,84.80
2022-10-02T09:22:33.972Z,86.08
2022-10-02T09:23:34.218Z,88.68
2022-10-02T09:24:34.442Z,89.93
2022-10-02T09:25:34.764Z,90.07
2022-10-02T09:26:35.436Z,90.33
2022-10-02T09:27:35.390Z,90.53
2022-10-02T09:28:35.792Z,89.93
2022-10-02T09:29:36.038Z,91.04
2022-10-02T09:30:36.372Z,90.33
2022-10-02T09:31:36.609Z,89.89
2022-10-02T09:32:36.823Z,89.70
2022-10-02T09:33:37.213Z,87.35
2022-10-02T09:34:37.436Z,85.53
2022-10-02T09:35:37.750Z,86.34
2022-10-02T09:36:38.368Z,86.20
2022-10-02T09:37:38.314Z,86.74
2022-10-02T09:38:39.318Z,85.19
2022-10-02T09:39:38.904Z,83.61
2022-10-02T09:40:39.211Z,84.31
2022-10-02T09:41:39.530Z,83.53
2022-10-02T09:42:39.848Z,82.32
2022-10-02T09:43:40.198Z,79.54
2022-10-02T09:44:40.446Z,79.60
2022-10-02T09:45:40.692Z,80.79
2022-10-02T09:46:40.891Z,81.23
2022-10-02T09:47:41.210Z,83.31
2022-10-02T09:48:41.521Z,84.41
2022-10-02T09:49:42.625Z,85.46
2022-10-02T09:50:42.111Z,86.02
2022-10-02T09:51:42.450Z,82.82
2022-10-02T09:52:43.018Z,81.85
2022-10-02T09:53:42.887Z,81.04
2022-10-02T09:54:43.220Z,81.73
2022-10-02T09:55:43.538Z,83.57
2022-10-02T09:56:43.847Z,84.61
2022-10-02T09:57:44.207Z,84.35
2022-10-02T09:58:44.388Z,85.39
2022-10-02T09:59:44.718Z,86.54
2022-10-02T10:00:48.835Z,87.35
2022-10-02T10:01:45.365Z,88.70
2022-10-02T10:02:45.744Z,88.29
2022-10-02T10:03:45.977Z,89.04
2022-10-02T10:05:04.413Z,88.64
2022-10-02T10:05:47.586Z,88.34
2022-10-02T10:06:46.826Z,89.24
2022-10-02T10:07:47.156Z,89.14
2022-10-02T10:08:47.500Z,89.48
2022-10-02T10:09:47.808Z,89.69
2022-10-02T10:10:48.154Z,89.69
2022-10-02T10:11:48.336Z,89.63
2022-10-02T10:12:48.636Z,90.44
2022-10-02T10:13:48.948Z,91.44
2022-10-02T10:14:49.257Z,91.64
2022-10-02T10:15:49.596Z,90.53
2022-10-02T10:16:49.920Z,91.34
2022-10-02T10:17:50.072Z,90.94
2022-10-02T10:18:50.270Z,90.94
2022-10-02T10:19:50.567Z,91.54
2022-10-02T10:20:50.888Z,91.64
2022-10-02T10:21:51.260Z,91.44
2022-10-02T10:22:51.438Z,91.64
2022-10-02T10:23:51.757Z,92.14
2022-10-02T10:24:52.066Z,91.44
2022-10-02T10:25:52.424Z,91.34
2022-10-02T10:26:52.739Z,91.54
2022-10-02T10:27:53.134Z,91.34
2022-10-02T10:28:53.327Z,92.14
2022-10-02T10:29:53.659Z,91.34
2022-10-02T10:30:54.024Z,91.24
2022-10-02T10:31:54.320Z,92.14
2022-10-02T10:32:54.546Z,92.25
2022-10-02T10:33:54.848Z,92.05
2022-10-02T10:34:55.172Z,92.85
2022-10-02T10:35:55.486Z,92.45
2022-10-02T10:36:55.819Z,92.45
2022-10-02T10:37:56.129Z,92.85
2022-10-02T10:38:56.452Z,92.80
2022-10-02T10:39:57.533Z,91.30
2022-10-02T10:40:57.014Z,92.10
2022-10-02T10:41:57.359Z,91.80
2022-10-02T10:43:07.490Z,92.00
2022-10-02T10:43:58.852Z,90.99
2022-10-02T10:44:58.104Z,92.10
2022-10-02T10:45:58.542Z,92.45
2022-10-02T10:46:58.739Z,92.45
2022-10-02T10:47:59.068Z,92.59
2022-10-02T10:48:59.407Z,93.40
2022-10-02T10:49:59.715Z,93.74
2022-10-02T10:51:00.066Z,93.95
2022-10-02T10:52:00.278Z,93.65
2022-10-02T10:53:00.581Z,93.44
2022-10-02T10:54:02.100Z,94.55
2022-10-02T10:55:01.204Z,94.39
2022-10-02T10:56:01.395Z,94.29
2022-10-02T10:57:01.705Z,94.19
2022-10-02T10:58:02.023Z,93.89
2022-10-02T10:59:04.200Z,94.29
2022-10-02T11:00:02.635Z,94.49
2022-10-02T11:01:02.909Z,94.80
2022-10-02T11:02:03.198Z,95.10
2022-10-02T11:03:03.392Z,95.55
2022-10-02T11:04:05.487Z,95.75
2022-10-02T11:05:04.007Z,96.05
2022-10-02T11:06:04.352Z,96.40
2022-10-02T11:07:04.539Z,96.60
2022-10-02T11:08:04.858Z,97.01
2022-10-02T11:09:06.130Z,97.51
2022-10-02T11:10:05.394Z,97.41
2022-10-02T11:11:05.749Z,98.02
2022-10-02T11:12:09.532Z,97.51
2022-10-02T11:13:06.199Z,97.81
2022-10-02T11:14:06.509Z,97.71
2022-10-02T11:15:06.825Z,98.02
2022-10-02T11:16:07.219Z,97.91
2022-10-02T11:17:07.484Z,97.91
2022-10-02T11:18:07.672Z,98.02
2022-10-02T11:19:08.797Z,98.11
2022-10-02T11:20:08.300Z,98.52
2022-10-02T11:21:08.614Z,98.42
2022-10-02T11:22:08.969Z,98.32
2022-10-02T11:23:11.156Z,97.27
2022-10-02T11:24:13.431Z,96.92
2022-10-02T11:25:12.986Z,96.26
2022-10-02T11:26:12.001Z,94.95
2022-10-02T11:27:10.434Z,95.31
2022-10-02T11:28:10.712Z,94.36
2022-10-02T11:29:10.911Z,93.01
2022-10-02T11:30:11.273Z,90.75
2022-10-02T11:31:11.511Z,88.85
2022-10-02T11:32:11.792Z,87.57
2022-10-02T11:33:15.764Z,86.22
2022-10-02T11:34:12.297Z,84.17
2022-10-02T11:35:12.491Z,83.19
2022-10-02T11:36:16.696Z,81.71
2022-10-02T11:37:13.078Z,81.17
2022-10-02T11:38:13.391Z,79.43
2022-10-02T11:39:13.747Z,79.33
2022-10-02T11:40:13.943Z,79.71
2022-10-02T11:41:14.253Z,79.30
2022-10-02T11:42:15.937Z,81.45
2022-10-02T11:43:14.813Z,82.63
2022-10-02T11:44:15.195Z,83.77
2022-10-02T11:45:19.226Z,83.37
2022-10-02T11:46:15.760Z,84.01
2022-10-02T11:47:16.013Z,85.75
2022-10-02T11:48:16.201Z,85.11
2022-10-02T11:49:16.514Z,84.21
2022-10-02T11:50:16.860Z,85.02
2022-10-02T11:51:17.053Z,83.91
2022-10-02T11:52:17.363Z,84.15
2022-10-02T11:53:17.667Z,84.45
2022-10-02T11:54:18.012Z,84.91
2022-10-02T11:55:18.319Z,83.71
2022-10-02T11:56:18.636Z,84.45
2022-10-02T11:57:18.945Z,86.12
2022-10-02T11:58:19.247Z,84.81
2022-10-02T11:59:19.561Z,85.22
2022-10-02T12:00:19.869Z,84.85
2022-10-02T12:01:20.162Z,85.96
2022-10-02T12:02:20.578Z,84.71
2022-10-02T12:03:22.762Z,85.05
2022-10-02T12:04:21.093Z,85.38
2022-10-02T12:05:21.302Z,82.93
2022-10-02T12:06:21.609Z,82.18
2022-10-02T12:07:21.965Z,80.91
2022-10-02T12:08:22.157Z,77.73
2022-10-02T12:09:22.455Z,78.53
2022-10-02T12:10:22.753Z,75.35
2022-10-02T12:11:23.079Z,75.16
2022-10-02T12:12:27.866Z,76.99
2022-10-02T12:13:23.675Z,77.39
2022-10-02T12:14:23.995Z,77.73
2022-10-02T12:15:24.282Z,78.17
2022-10-02T12:16:24.623Z,79.30
2022-10-02T12:17:24.884Z,79.94
2022-10-02T12:18:25.187Z,81.73
2022-10-02T12:19:25.543Z,81.96
2022-10-02T12:20:25.725Z,84.21
2022-10-02T12:21:26.037Z,84.85
2022-10-02T12:22:26.336Z,85.02
2022-10-02T12:23:26.635Z,84.97
2022-10-02T12:24:26.995Z,84.01
2022-10-02T12:25:27.171Z,84.19
2022-10-02T12:26:27.459Z,85.39
2022-10-02T12:27:27.784Z,85.90
2022-10-02T12:28:28.179Z,84.65
2022-10-02T12:29:28.451Z,83.27
2022-10-02T12:30:28.634Z,83.03
2022-10-02T12:31:28.989Z,81.35
2022-10-02T12:32:29.226Z,80.15
2022-10-02T12:33:29.545Z,80.35
2022-10-02T12:34:29.884Z,79.44
2022-10-02T12:35:30.112Z,80.11
2022-10-02T12:36:30.421Z,78.91
2022-10-02T12:37:31.621Z,79.74
2022-10-02T12:38:30.997Z,79.10
2022-10-02T12:39:31.306Z,77.86
2022-10-02T12:40:31.634Z,78.19
2022-10-02T12:41:31.828Z,77.19
2022-10-02T12:42:32.154Z,74.52
2022-10-02T12:43:32.459Z,72.75
2022-10-02T12:44:32.780Z,71.95
2022-10-02T12:45:33.170Z,70.86
2022-10-02T12:46:35.220Z,69.29
2022-10-02T12:47:33.629Z,65.19
2022-10-02T12:48:33.938Z,65.64
2022-10-02T12:49:34.240Z,65.64
2022-10-02T12:50:34.556Z,64.66
2022-10-02T12:51:35.451Z,64.52
2022-10-02T12:52:35.151Z,62.75
2022-10-02T12:53:35.497Z,59.66
2022-10-02T12:54:35.714Z,58.19
2022-10-02T12:55:35.924Z,54.55
2022-10-02T12:56:36.291Z,51.64
2022-10-02T12:57:39.177Z,49.99
2022-10-02T12:58:36.810Z,51.15
2022-10-02T12:59:37.131Z,52.33
2022-10-02T13:00:37.460Z,48.77
2022-10-02T13:01:38.063Z,47.06
2022-10-02T13:02:59.777Z,45.45
2022-10-02T13:03:39.257Z,46.89
2022-10-02T13:04:38.517Z,45.93
2022-10-02T13:05:38.878Z,49.28
2022-10-02T13:06:39.200Z,55.03
2022-10-02T13:07:39.536Z,58.98
2022-10-02T13:08:39.853Z,63.63
2022-10-02T13:09:40.212Z,67.20
2022-10-02T13:10:40.430Z,70.62
2022-10-02T13:11:40.832Z,72.45
2022-10-02T13:12:41.057Z,74.09
2022-10-02T13:13:41.358Z,73.19
2022-10-02T13:14:41.667Z,74.03
2022-10-02T13:15:41.988Z,76.33
2022-10-02T13:16:42.338Z,71.22
2022-10-02T13:17:42.536Z,65.05
2022-10-02T13:18:44.678Z,67.70
2022-10-02T13:19:43.078Z,66.64
2022-10-02T13:20:43.460Z,63.40
2022-10-02T13:21:43.659Z,63.03
2022-10-02T13:22:43.957Z,66.61
2022-10-02T13:23:44.270Z,67.43
2022-10-02T13:24:44.646Z,64.06
2022-10-02T13:25:44.823Z,60.37
2022-10-02T13:26:45.136Z,60.05
2022-10-02T13:27:45.440Z,61.16
2022-10-02T13:28:45.758Z,62.70
2022-10-02T13:29:46.072Z,64.79
2022-10-02T13:30:46.371Z,65.22
2022-10-02T13:31:46.762Z,66.71
2022-10-02T13:32:46.974Z,69.26
2022-10-02T13:33:47.272Z,71.92
2022-10-02T13:34:47.580Z,73.69
2022-10-02T13:35:47.893Z,75.26
2022-10-02T13:36:48.249Z,77.10
2022-10-02T13:37:48.430Z,76.90
2022-10-02T13:38:48.740Z,76.53
2022-10-02T13:39:49.043Z,73.28
2022-10-02T13:40:49.357Z,71.06
2022-10-02T13:41:49.686Z,70.49
2022-10-02T13:42:50.004Z,69.89
2022-10-02T13:43:50.324Z,71.12
2022-10-02T13:44:50.647Z,71.99
2022-10-02T13:45:51.021Z,72.22
2022-10-02T13:46:51.279Z,73.96
2022-10-02T13:47:51.583Z,74.29
2022-10-02T13:48:51.882Z,74.66
2022-10-02T13:49:52.179Z,74.19
2022-10-02T13:50:52.522Z,74.59
2022-10-02T13:51:52.858Z,74.29
2022-10-02T13:52:53.175Z,73.06
2022-10-02T13:53:53.481Z,71.86
2022-10-02T13:54:53.788Z,71.95
2022-10-02T13:55:54.092Z,69.79
2022-10-02T13:56:54.449Z,64.53
2022-10-02T13:57:54.644Z,57.88
2022-10-02T13:58:54.987Z,56.63
2022-10-02T13:59:55.187Z,54.06
2022-10-02T14:00:55.536Z,55.40
2022-10-02T14:01:55.767Z,58.65
2022-10-02T14:02:56.066Z,62.93
2022-10-02T14:03:56.436Z,65.31
2022-10-02T14:04:56.656Z,65.08
2022-10-02T14:05:58.098Z,62.68
2022-10-02T14:06:57.984Z,58.47
2022-10-02T14:07:57.467Z,54.97
2022-10-02T14:09:01.694Z,55.38
2022-10-02T14:09:58.055Z,60.00
2022-10-02T14:10:58.337Z,62.27
2022-10-02T14:11:58.667Z,62.80
2022-10-02T14:12:58.971Z,66.31
2022-10-02T14:14:03.667Z,68.13
2022-10-02T14:14:59.598Z,71.29
2022-10-02T14:15:59.937Z,71.89
2022-10-02T14:17:00.245Z,70.36
2022-10-02T14:18:00.544Z,71.06
2022-10-02T14:19:00.889Z,71.49
2022-10-02T14:20:01.182Z,71.72
2022-10-02T14:21:01.485Z,72.76
2022-10-02T14:22:01.799Z,73.89
2022-10-02T14:23:02.147Z,74.76
2022-10-02T14:24:02.447Z,75.50
2022-10-02T14:25:03.623Z,76.90
2022-10-02T14:26:03.100Z,76.94
2022-10-02T14:27:03.417Z,78.28
2022-10-02T14:28:03.743Z,78.18
2022-10-02T14:29:08.534Z,79.18
2022-10-02T14:30:05.438Z,78.88
2022-10-02T14:31:04.596Z,77.63
2022-10-02T14:32:05.010Z,71.69
2022-10-02T14:33:05.174Z,68.26
2022-10-02T14:34:05.381Z,69.43
2022-10-02T14:35:09.672Z,70.49
2022-10-02T14:36:06.991Z,70.03
2022-10-02T14:37:06.241Z,72.09
2022-10-02T14:38:06.566Z,73.02
2022-10-02T14:39:06.880Z,71.75
2022-10-02T14:40:07.208Z,70.06
2022-10-02T14:41:07.506Z,69.16
2022-10-02T14:42:07.816Z,65.22
2022-10-02T14:43:08.174Z,67.30
2022-10-02T14:44:08.397Z,65.42
2022-10-02T14:45:08.711Z,64.12
2022-10-02T14:46:09.046Z,66.74
2022-10-02T14:47:13.286Z,68.90
2022-10-02T14:48:10.549Z,69.92
2022-10-02T14:49:09.834Z,70.23
2022-10-02T14:50:10.133Z,73.56
2022-10-02T14:51:10.441Z,73.69
2022-10-02T14:52:10.750Z,74.83
2022-10-02T14:53:11.074Z,75.56
2022-10-02T14:54:11.433Z,74.43
2022-10-02T14:55:11.643Z,73.16
2022-10-02T14:56:11.864Z,72.05
2022-10-02T14:57:16.210Z,70.16
2022-10-02T14:58:13.479Z,70.03
2022-10-02T14:59:12.736Z,69.53